sensor_id;sensor_type;location;lat;lon;timestamp;temperature;humidity
25074;DHT22;13066;52.042;5.648;2022-08-19T00:01:28;21.60;97.30
25074;DHT22;13066;52.042;5.648;2022-08-19T00:03:58;21.60;97.40
25074;DHT22;13066;52.042;5.648;2022-08-19T00:06:28;21.50;97.50
25074;DHT22;13066;52.042;5.648;2022-08-19T00:08:57;21.50;97.60
25074;DHT22;13066;52.042;5.648;2022-08-19T00:11:27;21.50;97.70
25074;DHT22;13066;52.042;5.648;2022-08-19T00:13:55;21.50;97.70
25074;DHT22;13066;52.042;5.648;2022-08-19T00:16:24;21.50;97.70
25074;DHT22;13066;52.042;5.648;2022-08-19T00:18:53;21.40;97.70
25074;DHT22;13066;52.042;5.648;2022-08-19T00:21:22;21.40;97.80
25074;DHT22;13066;52.042;5.648;2022-08-19T00:23:52;21.40;97.80
25074;DHT22;13066;52.042;5.648;2022-08-19T00:26:20;21.40;97.80
25074;DHT22;13066;52.042;5.648;2022-08-19T00:28:48;21.30;98.20
25074;DHT22;13066;52.042;5.648;2022-08-19T00:31:17;21.30;97.90
25074;DHT22;13066;52.042;5.648;2022-08-19T00:33:45;21.30;97.90
25074;DHT22;13066;52.042;5.648;2022-08-19T00:36:14;21.20;98.00
25074;DHT22;13066;52.042;5.648;2022-08-19T00:38:42;21.20;98.10
25074;DHT22;13066;52.042;5.648;2022-08-19T00:41:13;21.20;98.10
25074;DHT22;13066;52.042;5.648;2022-08-19T00:43:43;21.20;98.30
25074;DHT22;13066;52.042;5.648;2022-08-19T00:46:23;21.20;98.30
25074;DHT22;13066;52.042;5.648;2022-08-19T00:48:51;21.10;98.40
25074;DHT22;13066;52.042;5.648;2022-08-19T00:51:20;21.10;98.40
25074;DHT22;13066;52.042;5.648;2022-08-19T00:53:48;21.10;98.80
25074;DHT22;13066;52.042;5.648;2022-08-19T00:56:18;21.10;98.60
25074;DHT22;13066;52.042;5.648;2022-08-19T00:58:46;21.10;98.60
25074;DHT22;13066;52.042;5.648;2022-08-19T01:01:14;21.10;98.60
25074;DHT22;13066;52.042;5.648;2022-08-19T01:03:42;21.10;98.60
25074;DHT22;13066;52.042;5.648;2022-08-19T01:06:24;21.10;98.60
25074;DHT22;13066;52.042;5.648;2022-08-19T01:08:53;21.10;98.60
25074;DHT22;13066;52.042;5.648;2022-08-19T01:11:23;21.00;98.60
25074;DHT22;13066;52.042;5.648;2022-08-19T01:13:52;21.00;98.70
25074;DHT22;13066;52.042;5.648;2022-08-19T01:16:24;21.00;98.70
25074;DHT22;13066;52.042;5.648;2022-08-19T01:18:52;21.00;98.80
25074;DHT22;13066;52.042;5.648;2022-08-19T01:21:25;21.00;98.70
25074;DHT22;13066;52.042;5.648;2022-08-19T01:23:56;20.90;99.10
25074;DHT22;13066;52.042;5.648;2022-08-19T01:26:25;20.90;98.60
25074;DHT22;13066;52.042;5.648;2022-08-19T01:28:57;20.80;98.90
25074;DHT22;13066;52.042;5.648;2022-08-19T01:31:28;20.80;99.00
25074;DHT22;13066;52.042;5.648;2022-08-19T01:34:00;20.80;99.00
25074;DHT22;13066;52.042;5.648;2022-08-19T01:36:31;20.70;99.00
25074;DHT22;13066;52.042;5.648;2022-08-19T01:39:02;20.70;99.10
25074;DHT22;13066;52.042;5.648;2022-08-19T01:41:30;20.80;99.20
25074;DHT22;13066;52.042;5.648;2022-08-19T01:43:59;20.70;99.20
25074;DHT22;13066;52.042;5.648;2022-08-19T01:46:45;20.70;99.20
25074;DHT22;13066;52.042;5.648;2022-08-19T01:49:14;20.70;99.30
25074;DHT22;13066;52.042;5.648;2022-08-19T01:51:42;20.70;99.30
25074;DHT22;13066;52.042;5.648;2022-08-19T01:54:14;20.70;99.40
25074;DHT22;13066;52.042;5.648;2022-08-19T01:56:56;20.70;99.40
25074;DHT22;13066;52.042;5.648;2022-08-19T01:59:25;20.70;99.50
25074;DHT22;13066;52.042;5.648;2022-08-19T02:01:53;20.60;99.60
25074;DHT22;13066;52.042;5.648;2022-08-19T02:04:21;20.60;99.60
25074;DHT22;13066;52.042;5.648;2022-08-19T02:06:52;20.60;99.60
25074;DHT22;13066;52.042;5.648;2022-08-19T02:09:21;20.60;99.70
25074;DHT22;13066;52.042;5.648;2022-08-19T02:11:49;20.60;99.80
25074;DHT22;13066;52.042;5.648;2022-08-19T02:14:18;20.60;99.80
25074;DHT22;13066;52.042;5.648;2022-08-19T02:16:46;20.60;99.80
25074;DHT22;13066;52.042;5.648;2022-08-19T02:19:14;20.50;99.70
25074;DHT22;13066;52.042;5.648;2022-08-19T02:21:42;20.50;99.70
25074;DHT22;13066;52.042;5.648;2022-08-19T02:24:11;20.50;99.70
25074;DHT22;13066;52.042;5.648;2022-08-19T02:26:41;20.50;99.70
25074;DHT22;13066;52.042;5.648;2022-08-19T02:29:09;20.50;99.80
25074;DHT22;13066;52.042;5.648;2022-08-19T02:31:37;20.50;99.80
25074;DHT22;13066;52.042;5.648;2022-08-19T02:34:05;20.50;99.80
25074;DHT22;13066;52.042;5.648;2022-08-19T02:36:33;20.50;99.90
25074;DHT22;13066;52.042;5.648;2022-08-19T02:39:01;20.50;99.90
25074;DHT22;13066;52.042;5.648;2022-08-19T02:41:30;20.40;99.90
25074;DHT22;13066;52.042;5.648;2022-08-19T02:44:02;20.40;99.90
25074;DHT22;13066;52.042;5.648;2022-08-19T02:46:50;20.40;99.90
25074;DHT22;13066;52.042;5.648;2022-08-19T02:49:19;20.40;99.90
25074;DHT22;13066;52.042;5.648;2022-08-19T02:51:47;20.40;99.90
25074;DHT22;13066;52.042;5.648;2022-08-19T02:54:15;20.40;99.90
25074;DHT22;13066;52.042;5.648;2022-08-19T02:56:44;20.40;99.90
25074;DHT22;13066;52.042;5.648;2022-08-19T02:59:14;20.30;99.90
25074;DHT22;13066;52.042;5.648;2022-08-19T03:01:42;20.30;99.90
25074;DHT22;13066;52.042;5.648;2022-08-19T03:04:12;20.30;99.90
25074;DHT22;13066;52.042;5.648;2022-08-19T03:06:43;20.30;99.90
25074;DHT22;13066;52.042;5.648;2022-08-19T03:09:12;20.30;99.90
25074;DHT22;13066;52.042;5.648;2022-08-19T03:11:40;20.30;99.90
25074;DHT22;13066;52.042;5.648;2022-08-19T03:14:09;20.30;99.90
25074;DHT22;13066;52.042;5.648;2022-08-19T03:16:43;20.30;99.90
25074;DHT22;13066;52.042;5.648;2022-08-19T03:19:12;20.20;99.90
25074;DHT22;13066;52.042;5.648;2022-08-19T03:21:42;20.20;99.90
25074;DHT22;13066;52.042;5.648;2022-08-19T03:24:12;20.20;99.90
25074;DHT22;13066;52.042;5.648;2022-08-19T03:26:47;20.20;99.90
25074;DHT22;13066;52.042;5.648;2022-08-19T03:29:15;20.20;99.90
25074;DHT22;13066;52.042;5.648;2022-08-19T03:31:58;20.10;99.90
25074;DHT22;13066;52.042;5.648;2022-08-19T03:34:33;20.00;99.90
25074;DHT22;13066;52.042;5.648;2022-08-19T03:37:06;20.00;99.90
25074;DHT22;13066;52.042;5.648;2022-08-19T03:39:36;20.00;99.90
25074;DHT22;13066;52.042;5.648;2022-08-19T03:42:05;20.00;99.90
25074;DHT22;13066;52.042;5.648;2022-08-19T03:44:53;20.00;99.90
25074;DHT22;13066;52.042;5.648;2022-08-19T03:47:23;20.00;99.90
25074;DHT22;13066;52.042;5.648;2022-08-19T03:49:53;20.00;99.90
25074;DHT22;13066;52.042;5.648;2022-08-19T03:52:21;20.00;99.90
25074;DHT22;13066;52.042;5.648;2022-08-19T03:54:49;20.00;99.90
25074;DHT22;13066;52.042;5.648;2022-08-19T03:57:17;20.00;99.90
25074;DHT22;13066;52.042;5.648;2022-08-19T03:59:45;20.00;99.90
25074;DHT22;13066;52.042;5.648;2022-08-19T04:02:13;20.00;99.90
25074;DHT22;13066;52.042;5.648;2022-08-19T04:04:43;20.00;99.90
25074;DHT22;13066;52.042;5.648;2022-08-19T04:07:13;19.90;99.90
25074;DHT22;13066;52.042;5.648;2022-08-19T04:09:43;20.00;99.90
25074;DHT22;13066;52.042;5.648;2022-08-19T04:12:11;19.90;99.90
25074;DHT22;13066;52.042;5.648;2022-08-19T04:14:39;19.90;99.90
25074;DHT22;13066;52.042;5.648;2022-08-19T04:17:07;19.90;99.90
25074;DHT22;13066;52.042;5.648;2022-08-19T04:19:36;19.90;99.90
25074;DHT22;13066;52.042;5.648;2022-08-19T04:22:06;19.80;99.90
25074;DHT22;13066;52.042;5.648;2022-08-19T04:24:34;19.90;99.90
25074;DHT22;13066;52.042;5.648;2022-08-19T04:27:03;19.80;99.90
25074;DHT22;13066;52.042;5.648;2022-08-19T04:29:32;19.80;99.90
25074;DHT22;13066;52.042;5.648;2022-08-19T04:32:02;19.80;99.90
25074;DHT22;13066;52.042;5.648;2022-08-19T04:34:35;19.80;99.90
25074;DHT22;13066;52.042;5.648;2022-08-19T04:37:24;19.70;99.90
25074;DHT22;13066;52.042;5.648;2022-08-19T04:39:57;19.60;99.90
25074;DHT22;13066;52.042;5.648;2022-08-19T04:42:43;19.60;99.90
25074;DHT22;13066;52.042;5.648;2022-08-19T04:45:14;19.60;99.90
25074;DHT22;13066;52.042;5.648;2022-08-19T04:47:44;19.60;99.90
25074;DHT22;13066;52.042;5.648;2022-08-19T04:50:25;19.60;99.90
25074;DHT22;13066;52.042;5.648;2022-08-19T04:52:54;19.60;99.90
25074;DHT22;13066;52.042;5.648;2022-08-19T04:55:23;19.60;99.90
25074;DHT22;13066;52.042;5.648;2022-08-19T04:57:52;19.60;99.90
25074;DHT22;13066;52.042;5.648;2022-08-19T05:00:20;19.60;99.90
25074;DHT22;13066;52.042;5.648;2022-08-19T05:02:49;19.60;99.90
25074;DHT22;13066;52.042;5.648;2022-08-19T05:05:17;19.60;99.90
25074;DHT22;13066;52.042;5.648;2022-08-19T05:07:46;19.60;99.90
25074;DHT22;13066;52.042;5.648;2022-08-19T05:10:16;19.60;99.90
25074;DHT22;13066;52.042;5.648;2022-08-19T05:12:44;19.60;99.90
25074;DHT22;13066;52.042;5.648;2022-08-19T05:15:13;19.60;99.90
25074;DHT22;13066;52.042;5.648;2022-08-19T05:17:41;19.60;99.90
25074;DHT22;13066;52.042;5.648;2022-08-19T05:20:29;19.60;99.90
25074;DHT22;13066;52.042;5.648;2022-08-19T05:23:15;19.60;99.90
25074;DHT22;13066;52.042;5.648;2022-08-19T05:25:49;19.60;99.90
25074;DHT22;13066;52.042;5.648;2022-08-19T05:28:19;19.60;99.90
25074;DHT22;13066;52.042;5.648;2022-08-19T05:30:47;19.60;99.90
25074;DHT22;13066;52.042;5.648;2022-08-19T05:33:17;19.60;99.90
25074;DHT22;13066;52.042;5.648;2022-08-19T05:35:46;19.70;99.90
25074;DHT22;13066;52.042;5.648;2022-08-19T05:38:16;19.70;99.90
25074;DHT22;13066;52.042;5.648;2022-08-19T05:40:44;19.70;99.90
25074;DHT22;13066;52.042;5.648;2022-08-19T05:43:15;19.70;99.90
25074;DHT22;13066;52.042;5.648;2022-08-19T05:45:44;19.70;99.90
25074;DHT22;13066;52.042;5.648;2022-08-19T05:48:13;19.70;99.90
25074;DHT22;13066;52.042;5.648;2022-08-19T05:50:41;19.70;99.90
25074;DHT22;13066;52.042;5.648;2022-08-19T05:53:12;19.70;99.90
25074;DHT22;13066;52.042;5.648;2022-08-19T05:55:43;19.80;99.90
25074;DHT22;13066;52.042;5.648;2022-08-19T05:58:11;19.80;99.90
25074;DHT22;13066;52.042;5.648;2022-08-19T06:00:43;19.80;99.90
25074;DHT22;13066;52.042;5.648;2022-08-19T06:03:11;19.90;99.90
25074;DHT22;13066;52.042;5.648;2022-08-19T06:05:40;19.90;99.90
25074;DHT22;13066;52.042;5.648;2022-08-19T06:08:17;19.90;99.90
25074;DHT22;13066;52.042;5.648;2022-08-19T06:11:12;20.00;99.90
25074;DHT22;13066;52.042;5.648;2022-08-19T06:13:42;20.00;99.90
25074;DHT22;13066;52.042;5.648;2022-08-19T06:16:12;20.10;99.90
25074;DHT22;13066;52.042;5.648;2022-08-19T06:18:49;20.10;99.90
25074;DHT22;13066;52.042;5.648;2022-08-19T06:21:20;20.20;99.90
25074;DHT22;13066;52.042;5.648;2022-08-19T06:23:49;20.20;99.90
25074;DHT22;13066;52.042;5.648;2022-08-19T06:26:19;20.20;99.90
25074;DHT22;13066;52.042;5.648;2022-08-19T06:28:48;20.30;99.90
25074;DHT22;13066;52.042;5.648;2022-08-19T06:31:21;20.30;99.90
25074;DHT22;13066;52.042;5.648;2022-08-19T06:33:50;20.40;99.90
25074;DHT22;13066;52.042;5.648;2022-08-19T06:36:20;20.50;99.90
25074;DHT22;13066;52.042;5.648;2022-08-19T06:38:51;20.50;99.90
25074;DHT22;13066;52.042;5.648;2022-08-19T06:41:19;20.60;99.90
25074;DHT22;13066;52.042;5.648;2022-08-19T06:43:47;20.60;99.90
25074;DHT22;13066;52.042;5.648;2022-08-19T06:46:21;20.70;99.90
25074;DHT22;13066;52.042;5.648;2022-08-19T06:48:50;20.70;99.90
25074;DHT22;13066;52.042;5.648;2022-08-19T06:51:21;20.70;99.90
25074;DHT22;13066;52.042;5.648;2022-08-19T06:53:53;20.80;99.90
25074;DHT22;13066;52.042;5.648;2022-08-19T06:56:23;20.90;99.90
25074;DHT22;13066;52.042;5.648;2022-08-19T06:58:58;20.90;99.90
25074;DHT22;13066;52.042;5.648;2022-08-19T07:01:28;20.90;99.90
25074;DHT22;13066;52.042;5.648;2022-08-19T07:03:56;21.00;99.90
25074;DHT22;13066;52.042;5.648;2022-08-19T07:06:24;21.00;99.90
25074;DHT22;13066;52.042;5.648;2022-08-19T07:09:11;21.10;99.90
25074;DHT22;13066;52.042;5.648;2022-08-19T07:11:44;21.10;99.90
25074;DHT22;13066;52.042;5.648;2022-08-19T07:14:14;21.10;99.90
25074;DHT22;13066;52.042;5.648;2022-08-19T07:16:49;21.10;99.90
25074;DHT22;13066;52.042;5.648;2022-08-19T07:19:18;21.10;99.90
25074;DHT22;13066;52.042;5.648;2022-08-19T07:21:48;21.20;99.90
25074;DHT22;13066;52.042;5.648;2022-08-19T07:24:18;21.20;99.90
25074;DHT22;13066;52.042;5.648;2022-08-19T07:26:47;21.30;99.90
25074;DHT22;13066;52.042;5.648;2022-08-19T07:29:19;21.30;99.90
25074;DHT22;13066;52.042;5.648;2022-08-19T07:31:52;21.40;99.90
25074;DHT22;13066;52.042;5.648;2022-08-19T07:34:27;21.40;99.90
25074;DHT22;13066;52.042;5.648;2022-08-19T07:36:56;21.50;99.90
25074;DHT22;13066;52.042;5.648;2022-08-19T07:39:27;21.60;99.90
25074;DHT22;13066;52.042;5.648;2022-08-19T07:41:58;21.60;99.90
25074;DHT22;13066;52.042;5.648;2022-08-19T07:44:26;21.70;99.90
25074;DHT22;13066;52.042;5.648;2022-08-19T07:46:57;21.80;99.90
25074;DHT22;13066;52.042;5.648;2022-08-19T07:49:27;21.80;99.90
25074;DHT22;13066;52.042;5.648;2022-08-19T07:51:58;21.90;99.90
25074;DHT22;13066;52.042;5.648;2022-08-19T07:54:30;22.00;99.90
25074;DHT22;13066;52.042;5.648;2022-08-19T07:57:01;22.00;99.90
25074;DHT22;13066;52.042;5.648;2022-08-19T07:59:31;22.00;99.90
25074;DHT22;13066;52.042;5.648;2022-08-19T08:02:01;22.10;99.90
25074;DHT22;13066;52.042;5.648;2022-08-19T08:04:30;22.10;99.90
25074;DHT22;13066;52.042;5.648;2022-08-19T08:07:16;22.10;99.90
25074;DHT22;13066;52.042;5.648;2022-08-19T08:10:03;22.20;99.90
25074;DHT22;13066;52.042;5.648;2022-08-19T08:12:40;22.20;99.80
25074;DHT22;13066;52.042;5.648;2022-08-19T08:15:30;22.20;99.50
25074;DHT22;13066;52.042;5.648;2022-08-19T08:18:00;22.20;99.30
25074;DHT22;13066;52.042;5.648;2022-08-19T08:20:29;22.20;99.20
25074;DHT22;13066;52.042;5.648;2022-08-19T08:22:57;22.20;99.10
25074;DHT22;13066;52.042;5.648;2022-08-19T08:25:43;22.20;99.10
25074;DHT22;13066;52.042;5.648;2022-08-19T08:28:15;22.20;99.00
25074;DHT22;13066;52.042;5.648;2022-08-19T08:30:44;22.20;98.90
25074;DHT22;13066;52.042;5.648;2022-08-19T08:33:17;22.30;98.80
25074;DHT22;13066;52.042;5.648;2022-08-19T08:36:00;22.30;98.80
25074;DHT22;13066;52.042;5.648;2022-08-19T08:38:30;22.30;98.70
25074;DHT22;13066;52.042;5.648;2022-08-19T08:41:10;22.30;98.40
25074;DHT22;13066;52.042;5.648;2022-08-19T08:43:48;22.30;98.50
25074;DHT22;13066;52.042;5.648;2022-08-19T08:46:23;22.30;98.40
25074;DHT22;13066;52.042;5.648;2022-08-19T08:49:03;22.30;98.20
25074;DHT22;13066;52.042;5.648;2022-08-19T08:51:38;22.30;98.10
25074;DHT22;13066;52.042;5.648;2022-08-19T08:54:12;22.30;98.10
25074;DHT22;13066;52.042;5.648;2022-08-19T08:56:41;22.30;98.20
25074;DHT22;13066;52.042;5.648;2022-08-19T08:59:21;22.30;98.10
25074;DHT22;13066;52.042;5.648;2022-08-19T09:01:51;22.40;98.00
25074;DHT22;13066;52.042;5.648;2022-08-19T09:04:23;22.40;97.80
25074;DHT22;13066;52.042;5.648;2022-08-19T09:06:55;22.50;97.90
25074;DHT22;13066;52.042;5.648;2022-08-19T09:09:30;22.50;97.70
25074;DHT22;13066;52.042;5.648;2022-08-19T09:12:07;22.60;97.60
25074;DHT22;13066;52.042;5.648;2022-08-19T09:14:44;22.70;97.40
25074;DHT22;13066;52.042;5.648;2022-08-19T09:17:18;22.70;97.10
25074;DHT22;13066;52.042;5.648;2022-08-19T09:19:52;22.80;97.00
25074;DHT22;13066;52.042;5.648;2022-08-19T09:22:21;22.90;96.80
25074;DHT22;13066;52.042;5.648;2022-08-19T09:24:52;23.00;96.60
25074;DHT22;13066;52.042;5.648;2022-08-19T09:27:22;23.00;96.50
25074;DHT22;13066;52.042;5.648;2022-08-19T09:30:11;23.00;96.30
25074;DHT22;13066;52.042;5.648;2022-08-19T09:32:40;23.10;96.20
25074;DHT22;13066;52.042;5.648;2022-08-19T09:35:12;23.10;95.90
25074;DHT22;13066;52.042;5.648;2022-08-19T09:37:42;23.10;95.70
25074;DHT22;13066;52.042;5.648;2022-08-19T09:40:11;23.20;95.50
25074;DHT22;13066;52.042;5.648;2022-08-19T09:42:41;23.20;95.50
25074;DHT22;13066;52.042;5.648;2022-08-19T09:45:18;23.20;95.30
25074;DHT22;13066;52.042;5.648;2022-08-19T09:47:49;23.20;95.40
25074;DHT22;13066;52.042;5.648;2022-08-19T09:50:23;23.20;95.30
25074;DHT22;13066;52.042;5.648;2022-08-19T09:52:52;23.20;95.00
25074;DHT22;13066;52.042;5.648;2022-08-19T09:55:24;23.20;95.00
25074;DHT22;13066;52.042;5.648;2022-08-19T09:58:00;23.10;95.00
25074;DHT22;13066;52.042;5.648;2022-08-19T10:00:28;23.10;95.10
25074;DHT22;13066;52.042;5.648;2022-08-19T10:02:57;23.10;95.20
25074;DHT22;13066;52.042;5.648;2022-08-19T10:05:28;23.20;95.40
25074;DHT22;13066;52.042;5.648;2022-08-19T10:08:15;23.20;95.30
25074;DHT22;13066;52.042;5.648;2022-08-19T10:10:48;23.20;95.10
25074;DHT22;13066;52.042;5.648;2022-08-19T10:13:18;23.20;95.10
25074;DHT22;13066;52.042;5.648;2022-08-19T10:15:48;23.20;94.90
25074;DHT22;13066;52.042;5.648;2022-08-19T10:18:18;23.30;95.00
25074;DHT22;13066;52.042;5.648;2022-08-19T10:20:49;23.40;94.90
25074;DHT22;13066;52.042;5.648;2022-08-19T10:23:20;23.40;94.70
25074;DHT22;13066;52.042;5.648;2022-08-19T10:25:48;23.50;94.70
25074;DHT22;13066;52.042;5.648;2022-08-19T10:28:20;23.60;94.50
25074;DHT22;13066;52.042;5.648;2022-08-19T10:30:49;23.70;94.10
25074;DHT22;13066;52.042;5.648;2022-08-19T10:33:18;23.70;93.90
25074;DHT22;13066;52.042;5.648;2022-08-19T10:36:10;23.80;93.70
25074;DHT22;13066;52.042;5.648;2022-08-19T10:38:38;23.80;93.20
25074;DHT22;13066;52.042;5.648;2022-08-19T10:41:22;23.80;93.10
25074;DHT22;13066;52.042;5.648;2022-08-19T10:43:51;23.90;93.00
25074;DHT22;13066;52.042;5.648;2022-08-19T10:46:22;23.90;92.90
25074;DHT22;13066;52.042;5.648;2022-08-19T10:48:51;24.00;92.80
25074;DHT22;13066;52.042;5.648;2022-08-19T10:51:21;24.00;92.60
25074;DHT22;13066;52.042;5.648;2022-08-19T10:54:13;24.10;92.50
25074;DHT22;13066;52.042;5.648;2022-08-19T10:56:42;24.00;92.40
25074;DHT22;13066;52.042;5.648;2022-08-19T10:59:19;24.10;92.40
25074;DHT22;13066;52.042;5.648;2022-08-19T11:01:53;24.10;92.40
25074;DHT22;13066;52.042;5.648;2022-08-19T11:04:23;24.20;92.60
25074;DHT22;13066;52.042;5.648;2022-08-19T11:06:56;24.20;92.50
25074;DHT22;13066;52.042;5.648;2022-08-19T11:09:26;24.30;92.60
25074;DHT22;13066;52.042;5.648;2022-08-19T11:12:00;24.30;92.60
25074;DHT22;13066;52.042;5.648;2022-08-19T11:14:30;24.40;92.70
25074;DHT22;13066;52.042;5.648;2022-08-19T11:17:00;24.40;93.10
25074;DHT22;13066;52.042;5.648;2022-08-19T11:19:29;24.50;92.80
25074;DHT22;13066;52.042;5.648;2022-08-19T11:21:59;24.50;92.00
25074;DHT22;13066;52.042;5.648;2022-08-19T11:24:30;24.50;91.80
25074;DHT22;13066;52.042;5.648;2022-08-19T11:27:07;24.60;91.90
25074;DHT22;13066;52.042;5.648;2022-08-19T11:29:38;24.60;91.90
25074;DHT22;13066;52.042;5.648;2022-08-19T11:32:09;24.70;91.90
25074;DHT22;13066;52.042;5.648;2022-08-19T11:34:39;24.80;91.70
25074;DHT22;13066;52.042;5.648;2022-08-19T11:37:09;24.90;91.50
25074;DHT22;13066;52.042;5.648;2022-08-19T11:39:37;24.90;91.30
25074;DHT22;13066;52.042;5.648;2022-08-19T11:42:06;25.00;91.20
25074;DHT22;13066;52.042;5.648;2022-08-19T11:44:49;25.10;91.10
25074;DHT22;13066;52.042;5.648;2022-08-19T11:47:17;25.20;91.00
25074;DHT22;13066;52.042;5.648;2022-08-19T11:49:46;25.30;91.10
25074;DHT22;13066;52.042;5.648;2022-08-19T11:52:33;25.40;91.20
25074;DHT22;13066;52.042;5.648;2022-08-19T11:55:02;25.50;90.90
25074;DHT22;13066;52.042;5.648;2022-08-19T11:57:31;25.60;90.60
25074;DHT22;13066;52.042;5.648;2022-08-19T11:59:59;25.60;90.50
25074;DHT22;13066;52.042;5.648;2022-08-19T12:02:28;25.60;90.50
25074;DHT22;13066;52.042;5.648;2022-08-19T12:04:56;25.70;90.60
25074;DHT22;13066;52.042;5.648;2022-08-19T12:07:24;25.70;90.40
25074;DHT22;13066;52.042;5.648;2022-08-19T12:09:54;25.70;90.10
25074;DHT22;13066;52.042;5.648;2022-08-19T12:12:23;25.80;90.20
25074;DHT22;13066;52.042;5.648;2022-08-19T12:14:51;25.80;90.10
25074;DHT22;13066;52.042;5.648;2022-08-19T12:17:23;25.80;90.00
25074;DHT22;13066;52.042;5.648;2022-08-19T12:19:52;25.90;89.90
25074;DHT22;13066;52.042;5.648;2022-08-19T12:22:20;25.90;89.80
25074;DHT22;13066;52.042;5.648;2022-08-19T12:24:48;25.90;89.90
25074;DHT22;13066;52.042;5.648;2022-08-19T12:27:20;25.90;90.10
25074;DHT22;13066;52.042;5.648;2022-08-19T12:30:11;26.00;89.50
25074;DHT22;13066;52.042;5.648;2022-08-19T12:32:39;26.00;89.60
25074;DHT22;13066;52.042;5.648;2022-08-19T12:35:08;26.10;89.50
25074;DHT22;13066;52.042;5.648;2022-08-19T12:37:38;26.10;89.40
25074;DHT22;13066;52.042;5.648;2022-08-19T12:40:22;26.10;89.20
25074;DHT22;13066;52.042;5.648;2022-08-19T12:42:54;26.10;89.40
25074;DHT22;13066;52.042;5.648;2022-08-19T12:45:22;26.20;89.60
25074;DHT22;13066;52.042;5.648;2022-08-19T12:47:51;26.20;89.60
25074;DHT22;13066;52.042;5.648;2022-08-19T12:50:21;26.20;89.40
25074;DHT22;13066;52.042;5.648;2022-08-19T12:52:49;26.30;89.10
25074;DHT22;13066;52.042;5.648;2022-08-19T12:55:20;26.30;89.10
25074;DHT22;13066;52.042;5.648;2022-08-19T12:57:48;26.40;89.40
25074;DHT22;13066;52.042;5.648;2022-08-19T13:00:21;26.50;89.60
25074;DHT22;13066;52.042;5.648;2022-08-19T13:02:51;26.60;89.00
25074;DHT22;13066;52.042;5.648;2022-08-19T13:05:22;26.70;88.30
25074;DHT22;13066;52.042;5.648;2022-08-19T13:07:52;26.80;87.70
25074;DHT22;13066;52.042;5.648;2022-08-19T13:10:24;26.90;87.60
25074;DHT22;13066;52.042;5.648;2022-08-19T13:12:54;26.90;88.00
25074;DHT22;13066;52.042;5.648;2022-08-19T13:15:24;26.90;87.10
25074;DHT22;13066;52.042;5.648;2022-08-19T13:17:53;27.00;86.90
25074;DHT22;13066;52.042;5.648;2022-08-19T13:20:23;27.00;86.90
25074;DHT22;13066;52.042;5.648;2022-08-19T13:22:51;27.10;86.70
25074;DHT22;13066;52.042;5.648;2022-08-19T13:25:20;27.10;86.10
25074;DHT22;13066;52.042;5.648;2022-08-19T13:27:49;27.10;85.70
25074;DHT22;13066;52.042;5.648;2022-08-19T13:30:19;27.00;85.80
25074;DHT22;13066;52.042;5.648;2022-08-19T13:33:07;27.00;87.10
25074;DHT22;13066;52.042;5.648;2022-08-19T13:35:45;26.90;88.90
25074;DHT22;13066;52.042;5.648;2022-08-19T13:38:15;26.80;90.20
25074;DHT22;13066;52.042;5.648;2022-08-19T13:40:43;26.60;90.90
25074;DHT22;13066;52.042;5.648;2022-08-19T13:43:11;26.40;91.40
25074;DHT22;13066;52.042;5.648;2022-08-19T13:45:50;26.30;92.00
25074;DHT22;13066;52.042;5.648;2022-08-19T13:48:21;26.10;92.50
25074;DHT22;13066;52.042;5.648;2022-08-19T13:50:50;26.00;92.90
25074;DHT22;13066;52.042;5.648;2022-08-19T13:53:18;25.90;93.30
25074;DHT22;13066;52.042;5.648;2022-08-19T13:55:47;25.80;93.50
25074;DHT22;13066;52.042;5.648;2022-08-19T13:58:17;25.70;93.60
25074;DHT22;13066;52.042;5.648;2022-08-19T14:00:46;25.60;93.90
25074;DHT22;13066;52.042;5.648;2022-08-19T14:03:15;25.60;94.20
25074;DHT22;13066;52.042;5.648;2022-08-19T14:05:44;25.60;94.50
25074;DHT22;13066;52.042;5.648;2022-08-19T14:08:13;25.60;94.50
25074;DHT22;13066;52.042;5.648;2022-08-19T14:10:41;25.60;94.40
25074;DHT22;13066;52.042;5.648;2022-08-19T14:13:13;25.60;94.40
25074;DHT22;13066;52.042;5.648;2022-08-19T14:15:42;25.60;94.50
25074;DHT22;13066;52.042;5.648;2022-08-19T14:18:11;25.60;94.60
25074;DHT22;13066;52.042;5.648;2022-08-19T14:20:40;25.60;94.60
25074;DHT22;13066;52.042;5.648;2022-08-19T14:23:17;25.70;94.70
25074;DHT22;13066;52.042;5.648;2022-08-19T14:25:45;25.70;94.70
25074;DHT22;13066;52.042;5.648;2022-08-19T14:28:14;25.70;95.00
25074;DHT22;13066;52.042;5.648;2022-08-19T14:30:43;25.70;94.40
25074;DHT22;13066;52.042;5.648;2022-08-19T14:33:12;25.70;94.40
25074;DHT22;13066;52.042;5.648;2022-08-19T14:35:46;25.70;94.50
25074;DHT22;13066;52.042;5.648;2022-08-19T14:38:17;25.60;94.50
25074;DHT22;13066;52.042;5.648;2022-08-19T14:41:07;25.50;94.20
25074;DHT22;13066;52.042;5.648;2022-08-19T14:43:35;25.40;94.70
25074;DHT22;13066;52.042;5.648;2022-08-19T14:46:05;25.10;95.40
25074;DHT22;13066;52.042;5.648;2022-08-19T14:48:36;25.00;96.20
25074;DHT22;13066;52.042;5.648;2022-08-19T14:51:07;24.80;96.90
25074;DHT22;13066;52.042;5.648;2022-08-19T14:53:37;24.60;97.30
25074;DHT22;13066;52.042;5.648;2022-08-19T14:56:09;24.40;97.60
25074;DHT22;13066;52.042;5.648;2022-08-19T14:58:38;24.30;98.20
25074;DHT22;13066;52.042;5.648;2022-08-19T15:01:08;24.20;98.60
25074;DHT22;13066;52.042;5.648;2022-08-19T15:03:37;24.20;98.90
25074;DHT22;13066;52.042;5.648;2022-08-19T15:06:08;24.20;99.20
25074;DHT22;13066;52.042;5.648;2022-08-19T15:08:41;24.10;99.40
25074;DHT22;13066;52.042;5.648;2022-08-19T15:11:13;24.10;99.50
25074;DHT22;13066;52.042;5.648;2022-08-19T15:13:43;24.10;99.60
25074;DHT22;13066;52.042;5.648;2022-08-19T15:16:15;24.10;99.70
25074;DHT22;13066;52.042;5.648;2022-08-19T15:18:45;24.00;99.70
25074;DHT22;13066;52.042;5.648;2022-08-19T15:21:15;24.00;99.60
25074;DHT22;13066;52.042;5.648;2022-08-19T15:23:55;24.00;99.50
25074;DHT22;13066;52.042;5.648;2022-08-19T15:26:25;24.00;99.40
25074;DHT22;13066;52.042;5.648;2022-08-19T15:28:54;24.00;99.40
25074;DHT22;13066;52.042;5.648;2022-08-19T15:31:23;24.00;99.40
25074;DHT22;13066;52.042;5.648;2022-08-19T15:33:55;24.10;99.60
25074;DHT22;13066;52.042;5.648;2022-08-19T15:36:24;24.10;99.60
25074;DHT22;13066;52.042;5.648;2022-08-19T15:38:54;24.20;99.40
25074;DHT22;13066;52.042;5.648;2022-08-19T15:41:25;24.20;99.30
25074;DHT22;13066;52.042;5.648;2022-08-19T15:43:55;24.20;99.20
25074;DHT22;13066;52.042;5.648;2022-08-19T15:46:29;24.20;99.20
25074;DHT22;13066;52.042;5.648;2022-08-19T15:48:58;24.30;99.10
25074;DHT22;13066;52.042;5.648;2022-08-19T15:51:28;24.40;99.20
25074;DHT22;13066;52.042;5.648;2022-08-19T15:53:59;24.50;99.10
25074;DHT22;13066;52.042;5.648;2022-08-19T15:56:29;24.50;99.10